Time;durP1;ratioP1;P1;durP2;ratioP2;P2;SDS_P1;SDS_P2;PMS_P1;PMS_P2;Temp;Humidity;BMP_temperature;BMP_pressure;BME280_temperature;BME280_humidity;BME280_pressure;Samples;Min_cycle;Max_cycle;Signal;HPM_P1;HPM_P2
2022/06/11 00:01:14;;;;;;;8.23;4.20;;;17.40;99.90;;;;;;6194415;23;20016;-90
2022/06/11 00:03:41;;;;;;;4.70;3.67;;;17.40;99.90;;;;;;6193768;23;20087;-90
2022/06/11 00:06:07;;;;;;;12.35;3.92;;;17.30;99.90;;;;;;6194236;23;20016;-90
2022/06/11 00:08:34;;;;;;;3.83;3.05;;;17.40;99.90;;;;;;6217836;23;20098;-90
2022/06/11 00:11:00;;;;;;;;;;;17.30;99.90;;;;;;6219446;23;20383;-90
2022/06/11 00:13:25;;;;;;;3.50;2.65;;;17.40;99.90;;;;;;6218575;23;19922;-89
2022/06/11 00:15:53;;;;;;;6.45;2.95;;;17.30;99.90;;;;;;6193960;23;20027;-90
2022/06/11 00:18:20;;;;;;;6.63;3.65;;;17.30;99.90;;;;;;6193271;23;20031;-89
2022/06/11 00:20:46;;;;;;;3.40;2.20;;;17.00;99.90;;;;;;6192671;23;20104;-90
2022/06/11 00:23:14;;;;;;;4.45;2.28;;;17.30;99.90;;;;;;6194211;23;20055;-90
2022/06/11 00:25:40;;;;;;;5.70;2.47;;;17.20;99.90;;;;;;6188023;23;20016;-89
2022/06/11 00:28:06;;;;;;;8.88;3.55;;;17.20;99.90;;;;;;6213117;23;20028;-90
2022/06/11 00:30:32;;;;;;;;;;;17.20;99.90;;;;;;6188736;23;20099;-89
2022/06/11 00:32:58;;;;;;;3.15;2.05;;;17.20;99.90;;;;;;6188837;23;20001;-90
2022/06/11 00:35:26;;;;;;;2.30;2.13;;;17.10;99.90;;;;;;6187564;23;20021;-91
2022/06/11 00:37:52;;;;;;;2.70;2.22;;;17.10;99.90;;;;;;6187793;23;20020;-90
2022/06/11 00:40:23;;;;;;;3.63;2.03;;;17.00;99.90;;;;;;6188634;23;20020;-89
2022/06/11 00:42:49;;;;;;;4.68;1.92;;;17.00;99.90;;;;;;6188082;23;20345;-89
2022/06/11 00:45:17;;;;;;;2.00;1.85;;;17.00;99.90;;;;;;6188844;23;20067;-89
2022/06/11 00:47:45;;;;;;;2.75;1.90;;;17.00;99.90;;;;;;6187995;23;20031;-89
2022/06/11 00:50:42;;;;;;;2.70;2.05;;;17.00;99.90;;;;;;6213865;23;20024;-90
2022/06/11 00:53:17;;;;;;;3.03;1.85;;;16.90;99.90;;;;;;6157788;23;20016;-89
2022/06/11 00:55:45;;;;;;;1.50;1.40;;;16.90;99.90;;;;;;6188007;23;20056;-89
2022/06/11 00:58:16;;;;;;;1.70;1.60;;;16.90;99.90;;;;;;6188232;23;20500;-89
2022/06/11 01:00:48;;;;;;;1.90;1.50;;;16.90;99.90;;;;;;6188238;23;20075;-89
2022/06/11 01:03:19;;;;;;;2.17;1.80;;;16.80;99.90;;;;;;6188783;23;20016;-89
2022/06/11 01:05:52;;;;;;;5.90;2.90;;;16.80;99.90;;;;;;6213247;23;20059;-89
2022/06/11 01:08:44;;;;;;;5.13;2.50;;;16.80;99.90;;;;;;6187812;23;20016;-90
2022/06/11 01:11:09;;;;;;;2.65;1.88;;;16.80;99.90;;;;;;6132136;23;20345;-90
2022/06/11 01:13:44;;;;;;;3.80;1.93;;;16.70;99.90;;;;;;6187816;23;20071;-90
2022/06/11 01:16:27;;;;;;;2.65;1.67;;;16.70;99.90;;;;;;6213562;23;20248;-89
2022/06/11 01:19:06;;;;;;;2.60;1.90;;;16.60;99.90;;;;;;6187191;23;20021;-89
2022/06/11 01:21:42;;;;;;;4.03;1.60;;;16.60;99.90;;;;;;6188144;23;20027;-90
2022/06/11 01:24:38;;;;;;;3.45;1.77;;;16.10;99.90;;;;;;6215302;23;20079;-90
2022/06/11 01:27:30;;;;;;;2.28;1.23;;;16.50;99.90;;;;;;6218569;23;20086;-89
2022/06/11 01:30:08;;;;;;;2.30;1.75;;;16.50;99.90;;;;;;6192966;23;20030;-89
2022/06/11 01:33:07;;;;;;;2.35;1.70;;;16.50;99.90;;;;;;6217735;23;20012;-90
2022/06/11 01:36:18;;;;;;;3.75;2.53;;;16.40;99.90;;;;;;6193017;23;20020;-90
2022/06/11 01:38:53;;;;;;;3.03;1.92;;;16.40;99.90;;;;;;6044497;23;20053;-89
2022/06/11 01:41:24;;;;;;;3.90;2.38;;;16.40;99.90;;;;;;6093391;23;20066;-90
2022/06/11 01:43:57;;;;;;;2.72;1.60;;;16.30;99.90;;;;;;6128728;23;20023;-89
2022/06/11 01:46:35;;;;;;;2.28;1.75;;;16.30;99.90;;;;;;6243234;23;20019;-89
2022/06/11 01:49:27;;;;;;;4.10;2.00;;;16.20;99.90;;;;;;6192819;23;20027;-89
2022/06/11 01:52:28;;;;;;;2.03;1.55;;;16.20;99.90;;;;;;6192523;23;20065;-89
2022/06/11 01:55:17;;;;;;;3.75;2.25;;;16.10;99.90;;;;;;6192078;23;20008;-89
2022/06/11 01:57:53;;;;;;;1.83;1.50;;;16.10;99.90;;;;;;6216993;23;20016;-89
2022/06/11 02:00:23;;;;;;;3.10;2.08;;;16.00;99.90;;;;;;6193281;23;20027;-89
2022/06/11 02:03:16;;;;;;;3.83;2.08;;;16.00;99.90;;;;;;6217619;23;20013;-89
2022/06/11 02:05:53;;;;;;;2.78;2.03;;;16.00;99.90;;;;;;6192550;23;20070;-89
2022/06/11 02:08:35;;;;;;;4.40;2.17;;;15.90;99.90;;;;;;6191918;23;20055;-89
2022/06/11 02:11:09;;;;;;;3.40;1.98;;;15.90;99.90;;;;;;6192047;23;20027;-89
2022/06/11 02:14:03;;;;;;;2.72;2.35;;;15.90;99.90;;;;;;6193038;23;20074;-90
2022/06/11 02:16:33;;;;;;;4.90;2.55;;;15.80;99.90;;;;;;6193051;23;20531;-89
2022/06/11 02:19:02;;;;;;;5.13;2.22;;;15.80;99.90;;;;;;6191896;23;20016;-89
2022/06/11 02:21:35;;;;;;;3.05;2.20;;;15.70;99.90;;;;;;6217283;23;20099;-89
2022/06/11 02:24:10;;;;;;;3.60;2.42;;;14.60;99.90;;;;;;6192110;23;20013;-89
2022/06/11 02:26:43;;;;;;;4.78;2.63;;;15.70;99.90;;;;;;6192624;23;20051;-89
2022/06/11 02:29:12;;;;;;;2.63;1.90;;;15.70;99.90;;;;;;6192595;23;20403;-88
2022/06/11 02:31:45;;;;;;;5.72;2.45;;;15.70;99.90;;;;;;6217709;23;20023;-89
2022/06/11 02:34:15;;;;;;;4.15;3.38;;;15.60;99.90;;;;;;6192776;23;20012;-89
2022/06/11 02:37:05;;;;;;;6.28;3.25;;;15.60;99.90;;;;;;6216955;23;20078;-88
2022/06/11 02:39:35;;;;;;;6.40;4.00;;;15.70;99.90;;;;;;6192504;23;20020;-89
2022/06/11 02:42:05;;;;;;;7.65;3.70;;;15.60;99.90;;;;;;6192168;23;20099;-89
2022/06/11 02:44:31;;;;;;;5.75;3.20;;;15.60;99.90;;;;;;6218072;23;20039;-88
2022/06/11 02:46:57;;;;;;;5.15;3.55;;;15.60;99.90;;;;;;6192140;23;20094;-88
2022/06/11 02:49:30;;;;;;;7.68;4.00;;;15.60;99.90;;;;;;6192497;23;20105;-88
2022/06/11 02:51:59;;;;;;;4.43;3.88;;;15.60;99.90;;;;;;6191452;23;20504;-89
2022/06/11 02:54:26;;;;;;;10.00;4.82;;;15.60;99.90;;;;;;6217134;23;20054;-89
2022/06/11 02:56:54;;;;;;;5.85;3.58;;;15.60;99.90;;;;;;6216769;23;20095;-89
2022/06/11 02:59:23;;;;;;;6.72;3.75;;;15.50;99.90;;;;;;6217057;23;20387;-88
2022/06/11 03:01:52;;;;;;;6.78;3.63;;;15.40;99.90;;;;;;6192028;23;20016;-89
2022/06/11 03:04:19;;;;;;;5.80;3.85;;;15.60;99.90;;;;;;6192421;23;20016;-89
2022/06/11 03:06:45;;;;;;;9.77;4.45;;;15.50;99.90;;;;;;6192415;23;20016;-89
2022/06/11 03:09:16;;;;;;;6.25;3.53;;;15.50;99.90;;;;;;6166746;23;20020;-88
2022/06/11 03:11:42;;;;;;;4.88;3.10;;;15.50;99.90;;;;;;6217625;23;20016;-90
2022/06/11 03:14:08;;;;;;;6.78;3.75;;;15.50;99.90;;;;;;6191928;23;20069;-89
2022/06/11 03:16:37;;;;;;;5.82;3.00;;;15.50;99.90;;;;;;6192522;23;20012;-89
2022/06/11 03:19:05;;;;;;;4.85;3.35;;;15.50;99.90;;;;;;6191500;23;20129;-89
2022/06/11 03:21:31;;;;;;;6.25;3.25;;;15.50;99.90;;;;;;6217499;23;20069;-89
2022/06/11 03:23:57;;;;;;;4.82;3.63;;;15.50;99.90;;;;;;6216406;23;20073;-89
2022/06/11 03:26:23;;;;;;;7.00;3.53;;;15.50;99.90;;;;;;6217014;23;20058;-88
2022/06/11 03:28:49;;;;;;;7.22;4.28;;;15.40;99.90;;;;;;6216742;23;20079;-90
2022/06/11 03:31:14;;;;;;;4.33;3.17;;;15.40;99.90;;;;;;6192496;23;20375;-88
2022/06/11 03:33:41;;;;;;;7.40;3.88;;;15.40;99.90;;;;;;6192218;23;20459;-89
2022/06/11 03:36:09;;;;;;;9.63;3.47;;;15.40;99.90;;;;;;6166985;23;20020;-89
2022/06/11 03:38:40;;;;;;;7.15;3.53;;;15.40;99.90;;;;;;6192703;23;20027;-88
2022/06/11 03:41:08;;;;;;;9.43;4.85;;;15.40;99.90;;;;;;6166525;23;20054;-89
2022/06/11 03:43:34;;;;;;;7.50;5.38;;;15.40;99.90;;;;;;6168146;23;20093;-88
2022/06/11 03:46:01;;;;;;;14.77;5.38;;;15.30;99.90;;;;;;6191086;23;20020;-88
2022/06/11 03:48:30;;;;;;;9.82;5.20;;;15.40;99.90;;;;;;6192577;23;20030;-89
2022/06/11 03:50:59;;;;;;;10.50;5.00;;;15.40;99.90;;;;;;6192539;23;20059;-89
2022/06/11 03:53:27;;;;;;;9.35;5.07;;;15.40;99.90;;;;;;6191933;23;20059;-88
2022/06/11 03:55:54;;;;;;;7.78;5.55;;;15.40;99.90;;;;;;6191630;23;20019;-89
2022/06/11 03:58:20;;;;;;;10.52;5.22;;;15.40;99.90;;;;;;6192242;23;20020;-89
2022/06/11 04:03:31;;;;;;;5.68;4.22;;;15.40;99.90;;;;;;6217308;23;20021;-87
2022/06/11 04:05:57;;;;;;;6.50;4.47;;;15.40;99.90;;;;;;6191304;23;20016;-89
2022/06/11 04:08:24;;;;;;;6.38;4.93;;;15.40;99.90;;;;;;6192093;23;20391;-89
2022/06/11 04:10:52;;;;;;;6.28;4.40;;;15.30;99.90;;;;;;6167587;23;20349;-89
2022/06/11 04:13:19;;;;;;;6.30;4.43;;;15.30;99.90;;;;;;6190889;23;20022;-89
2022/06/11 04:15:46;;;;;;;6.72;5.07;;;15.30;99.90;;;;;;6191708;23;20401;-89
2022/06/11 04:18:38;;;;;;;;;;;15.30;99.90;;;;;;6193216;23;20103;-89
2022/06/11 04:21:08;;;;;;;6.15;3.85;;;15.40;99.90;;;;;;6190221;23;19916;-88
2022/06/11 04:23:35;;;;;;;5.68;4.22;;;15.30;99.90;;;;;;6193515;23;20572;-89
2022/06/11 04:26:05;;;;;;;7.32;4.60;;;15.30;99.90;;;;;;6217349;23;20024;-89
2022/06/11 04:28:32;;;;;;;7.80;4.82;;;15.30;99.90;;;;;;6193871;23;20103;-89
2022/06/11 04:31:00;;;;;;;7.50;4.25;;;15.30;99.90;;;;;;6193540;23;20332;-90
2022/06/11 04:33:27;;;;;;;8.85;3.95;;;15.20;99.90;;;;;;6193889;23;20043;-88
2022/06/11 04:35:53;;;;;;;6.80;4.07;;;15.30;99.90;;;;;;6218649;23;20012;-89
2022/06/11 04:38:19;;;;;;;7.10;4.97;;;15.30;99.90;;;;;;6168418;23;20603;-89
2022/06/11 04:40:45;;;;;;;5.70;4.47;;;15.30;99.90;;;;;;6193813;23;20098;-88
2022/06/11 04:43:11;;;;;;;8.05;4.05;;;15.30;99.90;;;;;;6192934;23;20349;-89
2022/06/11 04:45:37;;;;;;;8.20;4.32;;;15.30;99.90;;;;;;6218295;23;20016;-88
2022/06/11 04:48:03;;;;;;;7.68;4.47;;;15.40;99.90;;;;;;6193151;23;20020;-88
2022/06/11 04:50:30;;;;;;;8.77;4.30;;;15.40;99.90;;;;;;6193761;23;20069;-88
2022/06/11 04:52:55;;;;;;;5.90;4.57;;;15.40;99.90;;;;;;6193397;23;20025;-89
2022/06/11 04:55:21;;;;;;;5.13;3.97;;;15.40;99.90;;;;;;6217255;23;20024;-89
2022/06/11 04:57:48;;;;;;;5.97;4.10;;;15.50;99.90;;;;;;6193660;23;20102;-89
2022/06/11 05:00:19;;;;;;;9.85;3.97;;;15.50;99.90;;;;;;6217912;23;20016;-89
2022/06/11 05:02:45;;;;;;;4.95;4.43;;;15.60;99.90;;;;;;6192987;23;20020;-89
2022/06/11 05:05:11;;;;;;;6.22;3.45;;;15.60;99.90;;;;;;6193042;23;20055;-89
2022/06/11 05:07:37;;;;;;;;;;;15.70;99.90;;;;;;6168346;23;20099;-89
2022/06/11 05:10:05;;;;;;;4.70;2.95;;;15.80;99.90;;;;;;6217882;23;19951;-90
2022/06/11 05:12:38;;;;;;;7.03;3.50;;;15.80;99.90;;;;;;6193789;23;20012;-92
2022/06/11 05:15:07;;;;;;;4.82;3.67;;;15.80;99.90;;;;;;6195483;23;20048;-93
2022/06/11 05:17:33;;;;;;;6.32;3.10;;;15.90;99.90;;;;;;6193854;23;20337;-90
2022/06/11 05:19:59;;;;;;;5.80;3.75;;;16.00;99.90;;;;;;6193154;23;20020;-90
2022/06/11 05:22:25;;;;;;;7.65;3.42;;;16.00;99.90;;;;;;6193146;23;20016;-89
2022/06/11 05:24:50;;;;;;;5.18;3.17;;;16.10;99.90;;;;;;6218050;23;20113;-87
2022/06/11 05:27:29;;;;;;;7.13;3.73;;;16.20;99.90;;;;;;6218656;23;20024;-92
2022/06/11 05:30:15;;;;;;;4.28;2.67;;;16.20;99.90;;;;;;6169903;23;20545;-91
2022/06/11 05:33:04;;;;;;;4.57;2.58;;;16.40;99.90;;;;;;6193821;23;20020;-91
2022/06/11 05:35:34;;;;;;;7.88;3.63;;;16.40;99.90;;;;;;6193591;23;20012;-88
2022/06/11 05:38:06;;;;;;;6.38;3.10;;;17.40;99.90;;;;;;6193207;23;20027;-91
2022/06/11 05:40:38;;;;;;;8.10;3.22;;;16.60;99.90;;;;;;6192988;23;20024;-88
2022/06/11 05:43:05;;;;;;;7.80;4.15;;;16.60;99.90;;;;;;6193057;23;20055;-92
2022/06/11 05:45:40;;;;;;;6.05;3.58;;;16.70;99.90;;;;;;6192649;23;20055;-92
2022/06/11 05:48:07;;;;;;;6.03;2.50;;;16.70;99.90;;;;;;6195428;23;20024;-93
2022/06/11 05:50:39;;;;;;;4.07;2.92;;;16.80;99.90;;;;;;6192154;23;20108;-88
2022/06/11 05:53:07;;;;;;;7.28;3.22;;;16.90;99.90;;;;;;6215943;23;20016;-87
2022/06/11 05:55:37;;;;;;;8.73;3.80;;;16.80;99.90;;;;;;6191802;23;20095;-91
2022/06/11 05:58:08;;;;;;;8.38;3.42;;;17.00;99.90;;;;;;6218274;23;20050;-92
2022/06/11 06:00:38;;;;;;;10.00;2.97;;;17.00;99.90;;;;;;6192848;23;20062;-88
2022/06/11 06:03:06;;;;;;;8.10;3.05;;;17.10;99.90;;;;;;6218078;23;20020;-94
2022/06/11 06:05:32;;;;;;;9.60;4.75;;;17.10;99.90;;;;;;6167591;23;20077;-93
2022/06/11 06:07:59;;;;;;;6.65;3.22;;;17.10;99.90;;;;;;6192980;23;20020;-87
2022/06/11 06:10:25;;;;;;;2.55;2.00;;;17.20;99.90;;;;;;6198346;23;20016;-87
2022/06/11 06:12:54;;;;;;;5.53;3.42;;;17.20;99.90;;;;;;6167959;23;20310;-92
2022/06/11 06:15:23;;;;;;;3.50;2.15;;;17.30;99.90;;;;;;6191908;23;20016;-88
2022/06/11 06:17:50;;;;;;;8.68;4.03;;;17.30;99.90;;;;;;6193183;23;20020;-87
2022/06/11 06:20:17;;;;;;;8.25;4.00;;;17.20;99.90;;;;;;6191838;23;20094;-89
2022/06/11 06:22:54;;;;;;;5.90;2.88;;;17.20;99.90;;;;;;6193652;23;20027;-90
2022/06/11 06:25:21;;;;;;;5.22;3.17;;;17.40;99.90;;;;;;6191274;23;20138;-90
2022/06/11 06:27:47;;;;;;;11.38;3.50;;;17.50;99.90;;;;;;6217848;23;20448;-89
2022/06/11 06:30:16;;;;;;;7.53;3.38;;;17.50;99.90;;;;;;6192721;23;20093;-91
2022/06/11 06:32:41;;;;;;;7.95;2.80;;;17.50;99.90;;;;;;6193141;23;20082;-88
2022/06/11 06:35:07;;;;;;;5.35;3.33;;;17.70;99.90;;;;;;6193463;23;20020;-88
2022/06/11 06:37:33;;;;;;;8.88;3.25;;;17.70;99.90;;;;;;6167324;23;20027;-90
2022/06/11 06:39:59;;;;;;;6.43;3.73;;;17.80;99.90;;;;;;6193934;23;20016;-89
2022/06/11 06:42:25;;;;;;;5.82;3.25;;;17.80;99.90;;;;;;6217890;23;20325;-91
2022/06/11 06:44:51;;;;;;;5.55;3.83;;;17.90;99.90;;;;;;6193385;23;20129;-91
2022/06/11 06:47:17;;;;;;;8.32;3.40;;;17.90;99.90;;;;;;6168346;23;20392;-90
2022/06/11 06:49:45;;;;;;;8.52;3.03;;;17.80;99.90;;;;;;6219151;23;20074;-89
2022/06/11 06:52:10;;;;;;;9.43;3.38;;;18.10;99.90;;;;;;6193772;23;20081;-92
2022/06/11 06:54:36;;;;;;;10.95;4.05;;;18.80;99.90;;;;;;6192133;23;20651;-87
2022/06/11 06:57:02;;;;;;;9.63;3.05;;;18.30;99.90;;;;;;6166636;23;20016;-87
2022/06/11 06:59:28;;;;;;;10.55;5.05;;;18.30;99.90;;;;;;6166313;23;20099;-87
2022/06/11 07:01:56;;;;;;;14.25;4.95;;;18.30;99.90;;;;;;6191825;23;20445;-87
2022/06/11 07:04:21;;;;;;;9.55;5.07;;;18.30;99.90;;;;;;6217112;23;20027;-87
2022/06/11 07:06:47;;;;;;;11.47;3.90;;;18.40;99.90;;;;;;6142867;23;20028;-89
2022/06/11 07:09:13;;;;;;;6.60;3.08;;;18.50;99.90;;;;;;6193138;23;20782;-92
2022/06/11 07:11:40;;;;;;;8.07;3.08;;;18.50;99.90;;;;;;6217159;23;20115;-88
2022/06/11 07:14:06;;;;;;;11.98;5.40;;;18.60;99.90;;;;;;6192609;23;20071;-89
2022/06/11 07:16:41;;;;;;;8.43;3.85;;;18.70;99.90;;;;;;6192702;23;20448;-88
2022/06/11 07:19:15;;;;;;;14.00;5.32;;;18.80;99.90;;;;;;6218138;23;20021;-88
2022/06/11 07:21:46;;;;;;;9.25;4.20;;;18.80;99.90;;;;;;6191816;23;20013;-89
2022/06/11 07:24:21;;;;;;;9.23;3.42;;;18.90;99.90;;;;;;6191916;23;20326;-85
2022/06/11 07:26:52;;;;;;;8.90;4.25;;;19.00;99.90;;;;;;6191411;23;20457;-84
2022/06/11 07:29:23;;;;;;;9.70;4.03;;;19.00;99.90;;;;;;6217136;23;20424;-86
2022/06/11 07:31:52;;;;;;;5.68;3.28;;;19.00;99.90;;;;;;6218313;23;20016;-86
2022/06/11 07:34:24;;;;;;;7.32;5.35;;;19.10;99.90;;;;;;6193240;23;20018;-86
2022/06/11 07:36:50;;;;;;;6.90;3.72;;;19.20;99.90;;;;;;6193210;23;20016;-86
2022/06/11 07:39:16;;;;;;;7.10;3.38;;;19.20;99.90;;;;;;6193632;23;20078;-86
2022/06/11 07:41:42;;;;;;;6.03;3.42;;;19.20;99.90;;;;;;6218049;23;20075;-86
2022/06/11 07:44:08;;;;;;;9.00;3.92;;;19.20;99.90;;;;;;6218547;23;20105;-86
2022/06/11 07:46:34;;;;;;;8.15;4.32;;;19.30;99.90;;;;;;6218324;23;20345;-86
2022/06/11 07:49:00;;;;;;;5.28;2.90;;;19.30;99.90;;;;;;6193635;23;20016;-85
2022/06/11 07:51:25;;;;;;;4.32;3.33;;;19.40;99.90;;;;;;6192984;23;20543;-86
2022/06/11 07:53:51;;;;;;;6.47;4.45;;;19.50;99.90;;;;;;6219922;23;20023;-86
2022/06/11 07:56:19;;;;;;;10.40;5.60;;;19.50;99.90;;;;;;6220570;23;20016;-86
2022/06/11 07:58:45;;;;;;;8.65;4.65;;;19.60;99.90;;;;;;6219998;23;20300;-85
2022/06/11 08:01:11;;;;;;;9.32;4.63;;;19.70;99.90;;;;;;6220403;23;20571;-86
2022/06/11 08:03:38;;;;;;;12.07;4.47;;;19.70;99.90;;;;;;6170241;23;20052;-85
2022/06/11 08:06:07;;;;;;;12.38;3.85;;;19.70;99.90;;;;;;6171037;23;20027;-86
2022/06/11 08:08:32;;;;;;;11.50;4.90;;;19.80;99.90;;;;;;6194722;23;20016;-85
2022/06/11 08:11:00;;;;;;;8.55;3.85;;;19.90;99.90;;;;;;6195159;23;20016;-86
2022/06/11 08:13:26;;;;;;;9.13;3.80;;;19.90;99.90;;;;;;6220234;23;20016;-86
2022/06/11 08:15:53;;;;;;;9.73;3.53;;;19.80;99.90;;;;;;6219651;23;20345;-85
2022/06/11 08:18:19;;;;;;;10.23;5.45;;;19.90;99.90;;;;;;6220425;23;20016;-86
2022/06/11 08:20:46;;;;;;;8.98;5.22;;;20.00;99.90;;;;;;6194966;23;20016;-86
2022/06/11 08:23:12;;;;;;;11.32;3.70;;;20.10;99.90;;;;;;6195356;23;20026;-86
2022/06/11 08:25:38;;;;;;;8.35;3.30;;;20.20;99.90;;;;;;6219504;23;20052;-86
2022/06/11 08:28:05;;;;;;;9.43;4.88;;;20.30;99.90;;;;;;6220133;23;20020;-86
2022/06/11 08:30:33;;;;;;;10.35;3.58;;;20.30;99.90;;;;;;6194656;23;20355;-86
2022/06/11 08:32:58;;;;;;;10.30;5.13;;;20.30;99.90;;;;;;6195051;23;20016;-86
2022/06/11 08:35:28;;;;;;;4.97;3.88;;;20.30;99.90;;;;;;6220052;23;20016;-86
2022/06/11 08:37:54;;;;;;;5.38;3.00;;;20.30;99.90;;;;;;6194476;23;20027;-86
2022/06/11 08:40:31;;;;;;;10.20;3.60;;;20.30;99.90;;;;;;6195198;23;20016;-86
2022/06/11 08:43:19;;;;;;;4.70;2.70;;;20.50;99.90;;;;;;6195577;23;20115;-85
2022/06/11 08:46:12;;;;;;;4.95;3.75;;;20.50;99.90;;;;;;6219503;23;20337;-86
2022/06/11 08:48:53;;;;;;;12.73;4.10;;;20.50;99.90;;;;;;6219523;23;20408;-85
2022/06/11 08:51:22;;;;;;;6.10;3.55;;;20.60;99.90;;;;;;6195064;23;20062;-86
2022/06/11 08:53:51;;;;;;;7.88;3.33;;;20.70;99.90;;;;;;6219396;23;20012;-86
2022/06/11 08:56:39;;;;;;;7.05;3.50;;;20.80;99.90;;;;;;6195078;23;20016;-86
2022/06/11 08:59:10;;;;;;;;;;;20.80;99.90;;;;;;6195508;23;20408;-86
2022/06/11 09:01:55;;;;;;;12.73;3.72;;;20.70;99.90;;;;;;6219283;23;19927;-86
2022/06/11 09:04:39;;;;;;;13.38;5.00;;;20.70;99.90;;;;;;6219571;23;20017;-86
2022/06/11 09:07:22;;;;;;;7.07;3.03;;;20.70;99.90;;;;;;6219940;23;20336;-86
2022/06/11 09:10:05;;;;;;;9.05;2.70;;;20.60;99.90;;;;;;6194517;23;20069;-86
2022/06/11 09:12:33;;;;;;;9.55;4.30;;;20.60;99.90;;;;;;6219768;23;20013;-86
2022/06/11 09:15:25;;;;;;;7.43;3.28;;;20.50;99.90;;;;;;6219210;23;20039;-86
2022/06/11 09:18:19;;;;;;;8.95;3.13;;;20.50;99.90;;;;;;6218924;23;20016;-85
2022/06/11 09:21:06;;;;;;;7.35;3.72;;;20.40;99.90;;;;;;6219296;23;20023;-86
2022/06/11 09:23:42;;;;;;;;;;;20.40;99.90;;;;;;6220224;23;20023;-85
2022/06/11 09:26:17;;;;;;;8.45;4.47;;;20.30;99.90;;;;;;6219418;23;19916;-86
2022/06/11 09:29:05;;;;;;;11.10;2.70;;;20.30;99.90;;;;;;6219215;23;20095;-86
2022/06/11 09:31:38;;;;;;;4.13;3.03;;;20.30;99.90;;;;;;6194738;23;20016;-85
2022/06/11 09:34:15;;;;;;;5.25;2.90;;;20.40;99.90;;;;;;6219593;23;20058;-86
2022/06/11 09:36:46;;;;;;;4.80;2.38;;;20.30;99.90;;;;;;6194099;23;20103;-86
2022/06/11 09:39:14;;;;;;;2.83;2.05;;;20.40;99.90;;;;;;6245981;23;20060;-86
2022/06/11 09:41:40;;;;;;;6.00;2.72;;;20.50;99.90;;;;;;6193942;23;20464;-86
2022/06/11 09:44:29;;;;;;;4.60;2.50;;;20.60;99.90;;;;;;6194490;23;20105;-85
2022/06/11 09:46:57;;;;;;;6.10;2.30;;;20.80;99.90;;;;;;6219000;23;20091;-86
2022/06/11 09:49:36;;;;;;;6.40;3.22;;;20.80;99.90;;;;;;6218940;23;20016;-86
2022/06/11 09:52:31;;;;;;;5.65;3.13;;;21.00;99.90;;;;;;6218952;23;20023;-86
2022/06/11 09:54:59;;;;;;;7.18;2.58;;;21.10;99.90;;;;;;6193365;23;20016;-86
2022/06/11 09:57:31;;;;;;;6.55;2.15;;;21.20;99.90;;;;;;6219407;23;20048;-85
2022/06/11 10:00:04;;;;;;;5.05;3.20;;;21.30;99.90;;;;;;6218782;23;20357;-85
2022/06/11 10:06:10;;;;;;;5.20;2.60;;;21.50;99.90;;;;;;6219602;23;20031;-86
2022/06/11 10:08:36;;;;;;;9.38;2.28;;;21.60;99.90;;;;;;6199320;23;20492;-85
2022/06/11 10:11:04;;;;;;;3.50;2.33;;;21.70;99.90;;;;;;6193714;23;20065;-85
2022/06/11 10:13:41;;;;;;;5.43;2.38;;;21.70;99.90;;;;;;6194007;23;20020;-85
2022/06/11 10:16:11;;;;;;;;;;;21.60;99.90;;;;;;6218464;23;20016;-86
2022/06/11 10:18:40;;;;;;;3.80;1.77;;;21.60;99.90;;;;;;6193990;23;19919;-86
2022/06/11 10:21:12;;;;;;;4.57;2.45;;;21.70;99.90;;;;;;6218537;23;20457;-86
2022/06/11 10:24:08;;;;;;;4.20;2.85;;;21.80;99.90;;;;;;6219148;23;20038;-86
2022/06/11 10:26:45;;;;;;;5.68;2.85;;;21.90;99.90;;;;;;6186830;23;20030;-85
2022/06/11 10:29:34;;;;;;;7.65;2.20;;;21.90;99.90;;;;;;6246103;23;20082;-86
2022/06/11 10:32:19;;;;;;;4.65;2.25;;;21.90;99.90;;;;;;6193492;23;20022;-86
2022/06/11 10:34:59;;;;;;;8.18;2.80;;;22.00;99.90;;;;;;6218839;23;20388;-85
2022/06/11 10:37:37;;;;;;;7.72;2.97;;;22.00;99.90;;;;;;6218588;23;20016;-85
2022/06/11 10:40:37;;;;;;;3.45;1.80;;;22.00;99.90;;;;;;6218474;23;20016;-85
2022/06/11 10:43:13;;;;;;;7.40;2.22;;;22.00;99.90;;;;;;6218399;23;20008;-86
2022/06/11 10:45:39;;;;;;;3.53;2.40;;;22.00;99.90;;;;;;6193911;23;20400;-85
2022/06/11 10:48:23;;;;;;;7.82;3.38;;;21.90;99.90;;;;;;6193410;23;20055;-85
2022/06/11 10:50:49;;;;;;;3.15;1.65;;;21.90;99.90;;;;;;6218917;23;20016;-85
2022/06/11 10:53:35;;;;;;;6.50;2.78;;;21.80;99.90;;;;;;6193689;23;20008;-85
2022/06/11 10:56:18;;;;;;;7.10;2.13;;;21.80;99.90;;;;;;6218465;23;20020;-85
2022/06/11 10:58:56;;;;;;;5.15;1.80;;;21.80;99.90;;;;;;6219085;23;20013;-85
2022/06/11 11:01:34;;;;;;;8.05;2.08;;;21.90;99.90;;;;;;6193846;23;20344;-85
2022/06/11 11:04:05;;;;;;;6.90;2.67;;;21.90;99.90;;;;;;6217907;23;20020;-86
2022/06/11 11:06:34;;;;;;;3.85;2.13;;;21.90;99.90;;;;;;6218877;23;20460;-85
2022/06/11 11:09:20;;;;;;;6.90;2.28;;;21.90;99.90;;;;;;6218259;23;20015;-85
2022/06/11 11:11:49;;;;;;;3.58;1.92;;;21.90;99.90;;;;;;6193699;23;20530;-85
2022/06/11 11:14:16;;;;;;;3.80;2.20;;;21.70;99.90;;;;;;6218094;23;20016;-86
2022/06/11 11:16:48;;;;;;;6.72;2.42;;;21.70;99.90;;;;;;6218807;23;20400;-86
2022/06/11 11:19:21;;;;;;;6.53;4.03;;;21.70;99.90;;;;;;6218301;23;20020;-86
2022/06/11 11:22:16;;;;;;;5.78;2.22;;;21.80;99.90;;;;;;6218717;23;20013;-85
2022/06/11 11:24:54;;;;;;;4.72;2.35;;;21.90;99.90;;;;;;6192009;23;20027;-85
2022/06/11 11:27:30;;;;;;;3.80;2.13;;;22.00;99.90;;;;;;6220422;23;20024;-85
2022/06/11 11:30:17;;;;;;;6.95;3.42;;;22.00;99.90;;;;;;6195246;23;20024;-86
2022/06/11 11:32:44;;;;;;;;;;;22.00;99.90;;;;;;6200123;23;20351;-85
2022/06/11 11:35:16;;;;;;;6.65;3.60;;;22.10;99.90;;;;;;6195039;23;19915;-86
2022/06/11 11:37:42;;;;;;;8.15;2.20;;;22.10;99.90;;;;;;6195473;23;20023;-85
2022/06/11 11:40:25;;;;;;;3.88;2.03;;;22.00;99.90;;;;;;6220207;23;20384;-86
2022/06/11 11:42:56;;;;;;;6.47;2.10;;;22.10;99.90;;;;;;6220807;23;20039;-85
2022/06/11 11:45:25;;;;;;;9.45;2.83;;;22.10;99.90;;;;;;6220523;23;20529;-85
2022/06/11 11:47:59;;;;;;;5.68;2.10;;;22.10;99.90;;;;;;6195376;23;20155;-86
2022/06/11 11:50:34;;;;;;;6.82;2.78;;;22.20;99.90;;;;;;6195925;23;20171;-85
2022/06/11 11:53:05;;;;;;;5.70;2.13;;;22.30;99.90;;;;;;6220055;23;20503;-86
2022/06/11 11:55:34;;;;;;;5.55;2.13;;;22.20;99.90;;;;;;6220427;23;20310;-85
2022/06/11 11:58:01;;;;;;;3.72;2.20;;;22.30;99.90;;;;;;6194800;23;20016;-86
2022/06/11 12:00:48;;;;;;;4.40;1.95;;;22.30;99.90;;;;;;6220419;23;20020;-85
2022/06/11 12:03:23;;;;;;;4.72;2.38;;;22.40;99.90;;;;;;6219963;23;20044;-85
2022/06/11 12:05:52;;;;;;;3.20;2.00;;;22.50;99.90;;;;;;6195327;23;20016;-85
2022/06/11 12:08:29;;;;;;;8.57;3.25;;;22.50;99.90;;;;;;6219706;23;20047;-85
2022/06/11 12:10:58;;;;;;;12.45;2.70;;;22.60;99.90;;;;;;6219839;23;20423;-85
2022/06/11 12:13:40;;;;;;;8.05;2.30;;;22.60;99.90;;;;;;6194856;23;20016;-85
2022/06/11 12:16:06;;;;;;;3.55;1.88;;;22.70;99.90;;;;;;6219850;23;20023;-86
2022/06/11 12:18:42;;;;;;;6.28;2.05;;;22.70;99.90;;;;;;6195196;23;20012;-85
2022/06/11 12:21:25;;;;;;;5.00;2.67;;;22.80;99.90;;;;;;6219898;23;20322;-85
2022/06/11 12:23:59;;;;;;;4.90;1.77;;;22.80;99.90;;;;;;6195167;23;20117;-85
2022/06/11 12:26:28;;;;;;;9.32;3.50;;;22.80;99.90;;;;;;6194237;23;20352;-85
2022/06/11 12:29:06;;;;;;;4.53;2.70;;;22.80;99.90;;;;;;6195036;23;20074;-85
2022/06/11 12:31:33;;;;;;;5.68;1.92;;;22.80;99.90;;;;;;6195225;23;20092;-85
2022/06/11 12:34:01;;;;;;;4.18;2.28;;;22.80;99.90;;;;;;6194889;23;20012;-85
2022/06/11 12:36:30;;;;;;;6.82;2.78;;;22.90;99.90;;;;;;6219508;23;20352;-85
2022/06/11 12:39:18;;;;;;;4.28;2.28;;;23.00;99.90;;;;;;6194406;23;20062;-85
2022/06/11 12:42:10;;;;;;;4.65;2.13;;;23.00;99.90;;;;;;6195132;23;20383;-86
2022/06/11 12:45:08;;;;;;;6.10;1.88;;;23.10;99.90;;;;;;6145065;23;20016;-85
2022/06/11 12:47:45;;;;;;;6.50;2.63;;;23.30;99.90;;;;;;6220299;23;20448;-85
2022/06/11 12:50:31;;;;;;;13.60;2.90;;;23.40;99.90;;;;;;6194470;23;20027;-86
2022/06/11 12:53:42;;;;;;;10.15;2.25;;;23.40;99.90;;;;;;6219918;23;20448;-86
2022/06/11 12:56:20;;;;;;;5.95;2.00;;;23.40;99.90;;;;;;6162805;23;20012;-86
2022/06/11 12:59:05;;;;;;;3.97;1.60;;;23.50;99.90;;;;;;6219951;23;20336;-85
2022/06/11 13:01:41;;;;;;;3.85;1.88;;;23.60;99.90;;;;;;6194193;23;20020;-85
2022/06/11 13:04:35;;;;;;;4.93;3.00;;;23.60;99.90;;;;;;6195004;23;20392;-85
2022/06/11 13:07:04;;;;;;;3.08;1.98;;;23.60;99.80;;;;;;6219965;23;20012;-86
2022/06/11 13:09:38;;;;;;;6.28;2.30;;;23.60;99.90;;;;;;6194265;23;20020;-85
2022/06/11 13:12:43;;;;;;;7.68;1.80;;;23.70;99.50;;;;;;6194759;23;20098;-85
2022/06/11 13:15:32;;;;;;;6.78;2.22;;;23.60;99.50;;;;;;6219336;23;20336;-90
2022/06/11 13:18:31;;;;;;;4.03;2.33;;;23.40;99.90;;;;;;6194774;23;20020;-85
2022/06/11 13:21:18;;;;;;;5.35;1.88;;;23.50;99.90;;;;;;6187048;23;20027;-85
2022/06/11 13:24:01;;;;;;;3.22;1.75;;;23.50;99.90;;;;;;6219483;23;20020;-86